Terminal Aerodrome Forecast
Issued by NWS

Home | Current Version | Previous Version | Text Only | Print | Product List | Glossary On
Versions: 1 2 3 4 5 6 7 8 9 10 11 12 13 14 15 16 17 18 19 20 21 22 23 24 25
961
FTUS41 KCLE 290539
TAFFDY
TAF
KFDY 290539Z 2906/3006 05006KT P6SM SCT025
      TEMPO 2906/2909 BKN025
     FM290900 05007KT P6SM BKN025
     FM291500 06012KT P6SM SCT025 BKN150=

USA.gov is the U.S. government's official web portal to all federal, state and local government web resources and services.